Time;durP1;ratioP1;P1;durP2;ratioP2;P2;SDS_P1;SDS_P2;PMS_P1;PMS_P2;Temp;Humidity;BMP_temperature;BMP_pressure;BME280_temperature;BME280_humidity;BME280_pressure;Samples;Min_cycle;Max_cycle;Signal;HPM_P1;HPM_P2
2023/11/11 00:13:17;;;;;;;36.50;21.60;;;;;;;10.30;100.00;99038.65;676200;1260;139997;-78
2023/11/11 00:28:54;;;;;;;42.10;23.30;;;;;;;10.00;100.00;99033.96;676527;1273;139868;-78
2023/11/11 00:44:31;;;;;;;38.40;22.10;;;;;;;9.78;100.00;99035.88;673855;1259;140476;-78
2023/11/11 01:00:10;;;;;;;64.20;31.60;;;;;;;9.80;100.00;99033.91;669667;1258;139596;-79
2023/11/11 01:15:52;;;;;;;66.00;30.90;;;;;;;9.82;100.00;99032.95;670294;1260;139541;-79
2023/11/11 01:31:29;;;;;;;66.70;31.20;;;;;;;9.75;100.00;99019.17;672507;1261;140122;-79
2023/11/11 01:47:06;;;;;;;55.10;27.20;;;;;;;9.74;100.00;99014.45;674466;1267;139605;-79
2023/11/11 02:02:43;;;;;;;37.70;22.40;;;;;;;9.56;100.00;98996.80;673967;1264;139781;-79
2023/11/11 02:18:20;;;;;;;34.20;21.10;;;;;;;9.42;100.00;98996.41;672151;1261;140123;-78
2023/11/11 02:33:57;;;;;;;85.50;42.60;;;;;;;9.51;100.00;98998.16;673788;1260;139284;-79
2023/11/11 02:49:34;;;;;;;325.80;103.70;;;;;;;9.71;100.00;98994.19;671494;1263;139175;-81
2023/11/11 03:05:12;;;;;;;423.80;138.40;;;;;;;9.74;100.00;98981.45;675306;1260;140412;-80
2023/11/11 03:20:49;;;;;;;562.60;185.40;;;;;;;9.76;100.00;98967.27;671058;1262;140873;-80
2023/11/11 03:36:26;;;;;;;94.90;39.30;;;;;;;10.05;100.00;98964.77;675273;1262;139756;-79
2023/11/11 03:52:04;;;;;;;169.10;60.70;;;;;;;10.05;100.00;98958.98;679818;1260;139684;-78
2023/11/11 04:07:41;;;;;;;110.10;44.80;;;;;;;10.02;100.00;98950.20;672763;1262;139534;-79
2023/11/11 04:23:20;;;;;;;56.70;33.80;;;;;;;9.78;99.96;98939.48;671798;1262;140795;-77
2023/11/11 04:38:57;;;;;;;55.80;30.80;;;;;;;8.87;100.00;98940.54;675551;1257;139606;-79
2023/11/11 04:54:34;;;;;;;48.90;28.00;;;;;;;8.70;100.00;98938.38;673811;1258;139899;-79
2023/11/11 05:10:17;;;;;;;42.60;25.30;;;;;;;8.76;100.00;98943.20;675857;1260;139910;-78
2023/11/11 05:25:54;;;;;;;44.00;25.20;;;;;;;8.76;100.00;98949.41;672771;1262;139553;-79
2023/11/11 05:41:30;;;;;;;39.50;24.80;;;;;;;8.60;100.00;98958.58;674843;1262;140270;-80
2023/11/11 05:57:07;;;;;;;47.20;29.10;;;;;;;8.22;100.00;98964.09;678659;1272;140024;-79
2023/11/11 06:12:45;;;;;;;47.30;26.50;;;;;;;8.14;100.00;98973.05;669104;1261;139364;-79
2023/11/11 06:28:23;;;;;;;54.80;28.60;;;;;;;8.16;100.00;98982.27;677059;1262;139793;-78
2023/11/11 06:44:00;;;;;;;67.30;32.70;;;;;;;8.23;100.00;98999.64;675992;1262;139264;-80
2023/11/11 06:59:37;;;;;;;66.10;35.20;;;;;;;8.37;100.00;99013.45;675836;1260;139679;-79
2023/11/11 07:15:15;;;;;;;90.10;43.70;;;;;;;8.61;100.00;99015.05;678310;1261;140181;-79
2023/11/11 07:30:52;;;;;;;252.00;100.00;;;;;;;8.78;100.00;99017.02;675148;1257;139192;-79
2023/11/11 07:46:32;;;;;;;254.00;127.00;;;;;;;9.15;100.00;99013.84;676934;1262;140776;-79
2023/11/11 08:02:14;;;;;;;240.90;123.70;;;;;;;9.35;100.00;99016.15;676596;1257;140125;-79
2023/11/11 08:17:51;;;;;;;199.60;104.70;;;;;;;9.54;100.00;99022.45;676154;1257;139713;-80
2023/11/11 08:33:29;;;;;;;258.60;131.00;;;;;;;9.69;100.00;99030.67;681001;1260;144139;-79
2023/11/11 08:49:05;;;;;;;138.10;71.30;;;;;;;10.11;100.00;99036.56;672353;1263;10144240;-80
2023/11/11 09:04:42;;;;;;;185.40;88.90;;;;;;;10.29;100.00;99038.00;680476;1260;140044;-80
2023/11/11 09:20:26;;;;;;;81.40;45.80;;;;;;;11.39;100.00;99030.73;676239;1260;140179;-81
2023/11/11 09:36:05;;;;;;;116.10;51.80;;;;;;;13.42;100.00;99020.95;676379;1261;139631;-80
2023/11/11 09:51:42;;;;;;;51.40;30.90;;;;;;;15.77;98.05;99003.80;675578;1263;141516;-80
2023/11/11 10:07:21;;;;;;;40.00;25.90;;;;;;;17.47;90.12;98995.84;673033;1262;139316;-81
2023/11/11 10:22:59;;;;;;;79.10;48.10;;;;;;;18.30;85.14;98991.36;674397;1260;139749;-81
2023/11/11 10:38:41;;;;;;;59.00;35.00;;;;;;;15.44;85.29;98987.75;676698;1262;139888;-81
2023/11/11 10:54:20;;;;;;;76.20;36.40;;;;;;;13.75;87.30;98974.44;673534;1263;138993;-79
2023/11/11 11:10:24;;;;;;;71.70;41.50;;;;;;;13.61;89.06;98958.10;677265;1262;140320;-80
2023/11/11 11:26:00;;;;;;;132.50;59.60;;;;;;;13.60;89.96;98955.95;675365;1260;139390;-81
2023/11/11 11:41:38;;;;;;;156.00;79.10;;;;;;;13.10;91.17;98956.41;681328;1261;139506;-80
2023/11/11 11:57:16;;;;;;;83.30;45.80;;;;;;;13.13;91.67;98959.98;679805;1260;140661;-80
2023/11/11 12:12:53;;;;;;;100.30;50.60;;;;;;;13.68;90.97;98956.47;678602;1260;139782;-80
2023/11/11 12:28:31;;;;;;;77.10;42.10;;;;;;;13.22;90.40;98950.94;679712;1263;140006;-80
2023/11/11 12:44:08;;;;;;;57.90;33.60;;;;;;;12.58;90.89;98941.50;678460;1262;140219;-79
2023/11/11 13:00:00;;;;;;;61.80;35.00;;;;;;;12.54;90.80;98944.23;681156;1260;139763;-80
2023/11/11 13:15:37;;;;;;;76.10;41.00;;;;;;;12.34;91.45;98953.98;682027;1262;140451;-80
2023/11/11 13:31:14;;;;;;;87.50;43.10;;;;;;;12.10;92.52;98964.07;675414;1263;139442;-79
2023/11/11 13:46:51;;;;;;;81.90;42.10;;;;;;;12.07;89.86;98975.26;676469;1273;139650;-79
2023/11/11 14:02:29;;;;;;;99.50;46.70;;;;;;;11.54;90.28;98984.84;679217;1261;140220;-79
2023/11/11 14:18:09;;;;;;;108.50;50.80;;;;;;;10.72;94.62;98988.35;682512;1260;139717;-79
2023/11/11 14:33:47;;;;;;;94.40;45.20;;;;;;;10.53;95.44;99000.90;678546;1263;140209;-77
2023/11/11 14:49:36;;;;;;;103.20;49.80;;;;;;;10.43;96.69;99005.97;676081;1263;139348;-79
2023/11/11 15:05:16;;;;;;;157.50;71.70;;;;;;;10.48;96.84;99016.38;672268;1261;139220;-79
2023/11/11 15:20:54;;;;;;;150.10;68.10;;;;;;;10.51;97.49;99024.21;670222;1262;139624;-79
2023/11/11 15:36:31;;;;;;;130.90;63.30;;;;;;;10.41;97.28;99020.90;674899;1262;139967;-79
2023/11/11 15:52:10;;;;;;;203.10;77.50;;;;;;;10.25;97.95;99035.86;676199;1262;140868;-79
2023/11/11 16:07:46;;;;;;;123.40;55.70;;;;;;;10.16;98.80;99060.13;672453;1260;139211;-79
2023/11/11 16:23:23;;;;;;;207.50;89.50;;;;;;;10.17;99.33;99077.42;678982;1260;139704;-79
2023/11/11 16:39:00;;;;;;;113.10;51.90;;;;;;;10.10;99.52;99088.20;674203;1263;140018;-79
2023/11/11 16:54:38;;;;;;;99.80;46.70;;;;;;;10.01;99.70;99096.00;672586;1263;139061;-79
2023/11/11 17:10:15;;;;;;;110.40;46.30;;;;;;;10.05;99.68;99099.77;671789;1270;138587;-79
2023/11/11 17:25:52;;;;;;;111.40;48.00;;;;;;;10.00;99.74;99101.11;675797;1261;139951;-79
2023/11/11 17:41:29;;;;;;;120.30;51.30;;;;;;;9.98;99.95;99099.64;676061;1272;139849;-79
2023/11/11 17:57:07;;;;;;;94.20;44.60;;;;;;;10.05;99.87;99097.48;675180;1263;139006;-79
2023/11/11 18:12:44;;;;;;;107.60;47.70;;;;;;;10.03;100.00;99105.54;674434;1271;139165;-80
2023/11/11 18:28:21;;;;;;;104.70;45.40;;;;;;;9.89;100.00;99116.24;674660;1258;140270;-80
2023/11/11 18:43:58;;;;;;;111.40;47.40;;;;;;;9.88;100.00;99117.58;677333;1264;139753;-80
2023/11/11 18:59:36;;;;;;;110.20;46.80;;;;;;;10.00;100.00;99121.77;675707;1262;140270;-79
2023/11/11 19:15:13;;;;;;;81.00;36.60;;;;;;;9.90;100.00;99111.80;676495;1260;141052;-80
2023/11/11 19:30:51;;;;;;;91.90;38.80;;;;;;;9.79;100.00;99101.91;676249;1258;139507;-80
2023/11/11 19:46:29;;;;;;;78.80;37.10;;;;;;;9.85;100.00;99102.91;675623;1271;139577;-80
2023/11/11 20:02:08;;;;;;;107.80;44.20;;;;;;;9.86;100.00;99120.20;675323;1262;139215;-80
2023/11/11 20:17:46;;;;;;;71.00;31.40;;;;;;;9.87;99.88;99127.80;677414;1260;139553;-78
2023/11/11 20:33:23;;;;;;;83.80;37.00;;;;;;;9.80;99.93;99131.84;676522;1257;139821;-79
2023/11/11 20:49:01;;;;;;;84.30;34.20;;;;;;;9.82;100.00;99134.45;671128;1260;10140955;-79
2023/11/11 21:04:37;;;;;;;73.70;28.90;;;;;;;9.77;100.00;99141.96;673946;1259;139323;-78
2023/11/11 21:20:14;;;;;;;72.80;28.10;;;;;;;9.68;100.00;99138.10;677885;1256;139376;-78
2023/11/11 21:35:52;;;;;;;70.60;26.10;;;;;;;9.56;100.00;99128.56;677063;1256;139814;-79
2023/11/11 21:51:31;;;;;;;62.70;24.60;;;;;;;9.40;100.00;99132.05;678886;1260;139433;-79
2023/11/11 22:07:08;;;;;;;62.90;24.90;;;;;;;9.45;100.00;99133.97;677666;1260;139434;-79
2023/11/11 22:22:45;;;;;;;66.10;24.80;;;;;;;9.42;100.00;99134.30;682479;1259;140372;-79
2023/11/11 22:38:22;;;;;;;55.20;23.00;;;;;;;9.37;100.00;99126.61;681546;1257;139597;-80
2023/11/11 22:54:00;;;;;;;45.20;20.90;;;;;;;9.12;100.00;99112.86;678843;1261;139626;-79
2023/11/11 23:09:36;;;;;;;45.30;19.50;;;;;;;9.03;100.00;99117.31;680978;1263;139826;-79
2023/11/11 23:25:15;;;;;;;48.20;21.50;;;;;;;9.00;99.98;99109.58;675989;1261;139668;-79
2023/11/11 23:40:52;;;;;;;43.30;19.60;;;;;;;8.63;100.00;99109.21;676780;1259;140057;-79
2023/11/11 23:56:30;;;;;;;41.90;18.40;;;;;;;8.48;100.00;99095.84;676343;1259;140181;-79
